sensor_id;sensor_type;location;lat;lon;timestamp;temperature;humidity
10443;DHT22;5269;51.146;16.986;2023-07-13T00:02:11;20.70;99.90
10443;DHT22;5269;51.146;16.986;2023-07-13T00:04:40;20.70;99.90
10443;DHT22;5269;51.146;16.986;2023-07-13T00:07:14;20.70;99.90
10443;DHT22;5269;51.146;16.986;2023-07-13T00:13:22;20.60;99.90
10443;DHT22;5269;51.146;16.986;2023-07-13T00:16:29;20.70;99.90
10443;DHT22;5269;51.146;16.986;2023-07-13T00:19:23;20.60;99.90
10443;DHT22;5269;51.146;16.986;2023-07-13T00:22:13;20.50;99.90
10443;DHT22;5269;51.146;16.986;2023-07-13T00:24:52;20.40;99.90
10443;DHT22;5269;51.146;16.986;2023-07-13T00:30:41;20.40;99.90
10443;DHT22;5269;51.146;16.986;2023-07-13T00:33:53;20.40;99.90
10443;DHT22;5269;51.146;16.986;2023-07-13T00:37:03;20.40;99.90
10443;DHT22;5269;51.146;16.986;2023-07-13T00:40:07;20.20;99.90
10443;DHT22;5269;51.146;16.986;2023-07-13T00:43:26;20.30;99.90
10443;DHT22;5269;51.146;16.986;2023-07-13T00:46:24;20.20;99.90
10443;DHT22;5269;51.146;16.986;2023-07-13T00:52:43;20.10;99.90
10443;DHT22;5269;51.146;16.986;2023-07-13T00:56:51;19.80;99.90
10443;DHT22;5269;51.146;16.986;2023-07-13T00:58:34;19.70;99.90
10443;DHT22;5269;51.146;16.986;2023-07-13T01:01:22;19.80;99.90
10443;DHT22;5269;51.146;16.986;2023-07-13T01:04:03;19.80;99.90
10443;DHT22;5269;51.146;16.986;2023-07-13T01:06:42;19.80;99.90
10443;DHT22;5269;51.146;16.986;2023-07-13T01:12:32;19.90;99.90
10443;DHT22;5269;51.146;16.986;2023-07-13T01:15:44;19.80;99.90
10443;DHT22;5269;51.146;16.986;2023-07-13T01:18:53;19.70;99.90
10443;DHT22;5269;51.146;16.986;2023-07-13T01:22:14;19.70;99.90
10443;DHT22;5269;51.146;16.986;2023-07-13T01:25:17;19.70;99.90
10443;DHT22;5269;51.146;16.986;2023-07-13T01:31:32;19.60;99.90
10443;DHT22;5269;51.146;16.986;2023-07-13T01:34:23;19.40;99.90
10443;DHT22;5269;51.146;16.986;2023-07-13T01:43:43;19.30;99.90
10443;DHT22;5269;51.146;16.986;2023-07-13T01:46:26;19.30;99.90
10443;DHT22;5269;51.146;16.986;2023-07-13T01:49:22;19.30;99.90
10443;DHT22;5269;51.146;16.986;2023-07-13T01:54:43;19.20;99.90
10443;DHT22;5269;51.146;16.986;2023-07-13T01:57:33;19.10;99.90
10443;DHT22;5269;51.146;16.986;2023-07-13T02:06:50;19.00;99.90
10443;DHT22;5269;51.146;16.986;2023-07-13T02:13:22;18.90;99.90
10443;DHT22;5269;51.146;16.986;2023-07-13T02:16:11;18.80;99.90
10443;DHT22;5269;51.146;16.986;2023-07-13T02:22:04;19.00;99.90
10443;DHT22;5269;51.146;16.986;2023-07-13T02:25:20;18.80;99.90
10443;DHT22;5269;51.146;16.986;2023-07-13T02:31:41;18.80;99.90
10443;DHT22;5269;51.146;16.986;2023-07-13T02:34:42;18.90;99.90
10443;DHT22;5269;51.146;16.986;2023-07-13T02:37:43;18.80;99.90
10443;DHT22;5269;51.146;16.986;2023-07-13T02:43:53;18.80;99.90
10443;DHT22;5269;51.146;16.986;2023-07-13T02:47:33;18.80;99.90
10443;DHT22;5269;51.146;16.986;2023-07-13T02:50:33;18.90;99.90
10443;DHT22;5269;51.146;16.986;2023-07-13T02:56:51;18.80;99.90
10443;DHT22;5269;51.146;16.986;2023-07-13T03:01:32;18.80;99.90
10443;DHT22;5269;51.146;16.986;2023-07-13T03:02:31;18.70;99.90
10443;DHT22;5269;51.146;16.986;2023-07-13T03:08:32;18.80;99.90
10443;DHT22;5269;51.146;16.986;2023-07-13T03:18:03;18.70;99.90
10443;DHT22;5269;51.146;16.986;2023-07-13T03:26:41;19.20;99.90
10443;DHT22;5269;51.146;16.986;2023-07-13T03:29:51;19.30;99.90
10443;DHT22;5269;51.146;16.986;2023-07-13T03:35:44;19.40;99.90
10443;DHT22;5269;51.146;16.986;2023-07-13T03:38:32;19.40;99.90
10443;DHT22;5269;51.146;16.986;2023-07-13T03:41:21;19.40;99.90
10443;DHT22;5269;51.146;16.986;2023-07-13T03:44:23;19.50;99.90
10443;DHT22;5269;51.146;16.986;2023-07-13T03:47:14;19.60;99.90
10443;DHT22;5269;51.146;16.986;2023-07-13T03:50:11;19.50;99.90
10443;DHT22;5269;51.146;16.986;2023-07-13T03:53:03;19.50;99.90
10443;DHT22;5269;51.146;16.986;2023-07-13T03:58:34;19.80;99.90
10443;DHT22;5269;51.146;16.986;2023-07-13T04:12:11;19.70;99.90
10443;DHT22;5269;51.146;16.986;2023-07-13T04:14:54;19.60;99.90
10443;DHT22;5269;51.146;16.986;2023-07-13T04:17:34;19.50;99.90
10443;DHT22;5269;51.146;16.986;2023-07-13T04:20:12;19.40;99.90
10443;DHT22;5269;51.146;16.986;2023-07-13T04:22:52;19.40;99.90
10443;DHT22;5269;51.146;16.986;2023-07-13T04:31:33;19.00;99.90
10443;DHT22;5269;51.146;16.986;2023-07-13T04:34:03;18.60;99.90
10443;DHT22;5269;51.146;16.986;2023-07-13T04:36:30;18.30;99.90
10443;DHT22;5269;51.146;16.986;2023-07-13T04:39:00;17.90;99.90
10443;DHT22;5269;51.146;16.986;2023-07-13T04:41:30;17.40;99.90
10443;DHT22;5269;51.146;16.986;2023-07-13T04:44:03;17.10;99.90
10443;DHT22;5269;51.146;16.986;2023-07-13T04:46:34;16.80;99.90
10443;DHT22;5269;51.146;16.986;2023-07-13T04:49:14;16.70;99.90
10443;DHT22;5269;51.146;16.986;2023-07-13T04:51:52;16.50;99.90
10443;DHT22;5269;51.146;16.986;2023-07-13T04:54:21;16.40;99.90
10443;DHT22;5269;51.146;16.986;2023-07-13T04:56:51;16.40;99.90
10443;DHT22;5269;51.146;16.986;2023-07-13T04:59:20;16.40;99.90
10443;DHT22;5269;51.146;16.986;2023-07-13T05:01:51;16.40;99.90
10443;DHT22;5269;51.146;16.986;2023-07-13T05:04:21;16.30;99.90
10443;DHT22;5269;51.146;16.986;2023-07-13T05:06:54;16.20;99.90
10443;DHT22;5269;51.146;16.986;2023-07-13T07:21:51;17.50;99.90
10443;DHT22;5269;51.146;16.986;2023-07-13T07:24:23;17.50;99.90
10443;DHT22;5269;51.146;16.986;2023-07-13T07:26:52;17.40;99.90
10443;DHT22;5269;51.146;16.986;2023-07-13T07:29:22;17.50;99.90
10443;DHT22;5269;51.146;16.986;2023-07-13T07:31:51;17.60;99.90
10443;DHT22;5269;51.146;16.986;2023-07-13T07:34:21;17.70;99.90
10443;DHT22;5269;51.146;16.986;2023-07-13T07:40:01;17.70;99.90
10443;DHT22;5269;51.146;16.986;2023-07-13T07:42:34;17.70;99.90
10443;DHT22;5269;51.146;16.986;2023-07-13T07:45:11;17.60;99.90
10443;DHT22;5269;51.146;16.986;2023-07-13T07:51:31;17.60;99.90
10443;DHT22;5269;51.146;16.986;2023-07-13T07:54:41;17.60;99.90
10443;DHT22;5269;51.146;16.986;2023-07-13T07:57:23;17.60;99.90
10443;DHT22;5269;51.146;16.986;2023-07-13T08:00:22;17.90;99.90
10443;DHT22;5269;51.146;16.986;2023-07-13T08:07:05;18.20;99.90
10443;DHT22;5269;51.146;16.986;2023-07-13T08:13:32;18.40;99.90
10443;DHT22;5269;51.146;16.986;2023-07-13T08:16:13;18.50;99.90
10443;DHT22;5269;51.146;16.986;2023-07-13T08:22:03;18.80;99.90
10443;DHT22;5269;51.146;16.986;2023-07-13T08:28:54;18.70;99.90
10443;DHT22;5269;51.146;16.986;2023-07-13T08:31:54;19.00;99.90
10443;DHT22;5269;51.146;16.986;2023-07-13T08:35:01;19.10;99.90
10443;DHT22;5269;51.146;16.986;2023-07-13T08:38:03;19.20;99.90
10443;DHT22;5269;51.146;16.986;2023-07-13T08:41:23;19.20;99.90
10443;DHT22;5269;51.146;16.986;2023-07-13T08:50:55;19.50;99.90
10443;DHT22;5269;51.146;16.986;2023-07-13T09:05:43;20.10;99.90
10443;DHT22;5269;51.146;16.986;2023-07-13T10:19:32;22.90;1.00
10443;DHT22;5269;51.146;16.986;2023-07-13T10:22:36;22.70;1.00
10443;DHT22;5269;51.146;16.986;2023-07-13T10:25:48;22.50;1.00
10443;DHT22;5269;51.146;16.986;2023-07-13T10:32:22;22.60;1.00
10443;DHT22;5269;51.146;16.986;2023-07-13T10:48:05;22.70;1.00
10443;DHT22;5269;51.146;16.986;2023-07-13T10:50:55;23.00;1.00
10443;DHT22;5269;51.146;16.986;2023-07-13T11:58:56;23.70;99.90
10443;DHT22;5269;51.146;16.986;2023-07-13T12:01:36;23.70;1.00
10443;DHT22;5269;51.146;16.986;2023-07-13T12:04:21;23.80;1.00
10443;DHT22;5269;51.146;16.986;2023-07-13T12:06:55;23.80;99.90
10443;DHT22;5269;51.146;16.986;2023-07-13T12:09:33;23.80;53.80
10443;DHT22;5269;51.146;16.986;2023-07-13T12:12:13;23.80;1.00
10443;DHT22;5269;51.146;16.986;2023-07-13T12:14:44;23.80;1.00
10443;DHT22;5269;51.146;16.986;2023-07-13T12:17:16;23.80;1.00
10443;DHT22;5269;51.146;16.986;2023-07-13T12:19:53;23.80;22.30
10443;DHT22;5269;51.146;16.986;2023-07-13T12:22:45;24.00;82.40
10443;DHT22;5269;51.146;16.986;2023-07-13T12:25:35;23.60;4.60
10443;DHT22;5269;51.146;16.986;2023-07-13T12:28:28;23.70;7.90
10443;DHT22;5269;51.146;16.986;2023-07-13T12:31:33;23.70;99.90
10443;DHT22;5269;51.146;16.986;2023-07-13T12:34:15;23.90;99.90
10443;DHT22;5269;51.146;16.986;2023-07-13T12:36:59;24.00;99.90
10443;DHT22;5269;51.146;16.986;2023-07-13T12:39:35;24.00;1.00
10443;DHT22;5269;51.146;16.986;2023-07-13T12:42:24;24.00;1.00
10443;DHT22;5269;51.146;16.986;2023-07-13T12:45:16;24.20;1.00
10443;DHT22;5269;51.146;16.986;2023-07-13T12:48:06;24.50;1.00
10443;DHT22;5269;51.146;16.986;2023-07-13T12:54:07;24.90;1.00
10443;DHT22;5269;51.146;16.986;2023-07-13T12:56:43;24.70;1.00
10443;DHT22;5269;51.146;16.986;2023-07-13T12:59:22;24.30;1.00
10443;DHT22;5269;51.146;16.986;2023-07-13T13:01:53;24.60;1.00
10443;DHT22;5269;51.146;16.986;2023-07-13T13:04:25;25.20;1.00
10443;DHT22;5269;51.146;16.986;2023-07-13T13:07:13;25.40;1.00
10443;DHT22;5269;51.146;16.986;2023-07-13T13:09:42;25.20;1.00
10443;DHT22;5269;51.146;16.986;2023-07-13T13:12:24;25.10;1.00
10443;DHT22;5269;51.146;16.986;2023-07-13T13:14:54;24.90;1.00
10443;DHT22;5269;51.146;16.986;2023-07-13T13:17:34;25.20;1.00
10443;DHT22;5269;51.146;16.986;2023-07-13T13:20:17;25.30;1.00
10443;DHT22;5269;51.146;16.986;2023-07-13T13:23:16;25.50;1.00
10443;DHT22;5269;51.146;16.986;2023-07-13T13:26:07;25.90;1.00
10443;DHT22;5269;51.146;16.986;2023-07-13T13:28:52;26.00;1.00
10443;DHT22;5269;51.146;16.986;2023-07-13T13:32:15;25.80;1.00
10443;DHT22;5269;51.146;16.986;2023-07-13T13:34:54;25.90;1.00
10443;DHT22;5269;51.146;16.986;2023-07-13T13:37:23;26.00;1.00
10443;DHT22;5269;51.146;16.986;2023-07-13T13:39:54;26.20;1.00
10443;DHT22;5269;51.146;16.986;2023-07-13T13:42:23;25.90;1.00
10443;DHT22;5269;51.146;16.986;2023-07-13T13:44:52;25.90;1.00
10443;DHT22;5269;51.146;16.986;2023-07-13T13:47:32;26.10;1.00
10443;DHT22;5269;51.146;16.986;2023-07-13T13:50:25;26.50;1.00
10443;DHT22;5269;51.146;16.986;2023-07-13T13:52:53;26.60;1.00
10443;DHT22;5269;51.146;16.986;2023-07-13T13:55:23;26.60;1.00
10443;DHT22;5269;51.146;16.986;2023-07-13T13:57:52;26.70;99.90
10443;DHT22;5269;51.146;16.986;2023-07-13T14:00:22;26.50;99.90
10443;DHT22;5269;51.146;16.986;2023-07-13T14:02:56;26.20;99.90
10443;DHT22;5269;51.146;16.986;2023-07-13T14:05:33;26.60;99.90
10443;DHT22;5269;51.146;16.986;2023-07-13T14:08:03;27.00;99.90
10443;DHT22;5269;51.146;16.986;2023-07-13T14:10:36;26.80;99.90
10443;DHT22;5269;51.146;16.986;2023-07-13T14:13:24;27.30;99.90
10443;DHT22;5269;51.146;16.986;2023-07-13T14:16:12;27.30;99.90
10443;DHT22;5269;51.146;16.986;2023-07-13T14:18:43;27.60;99.90
10443;DHT22;5269;51.146;16.986;2023-07-13T14:21:34;27.50;99.90
10443;DHT22;5269;51.146;16.986;2023-07-13T14:27:36;27.60;99.90
10443;DHT22;5269;51.146;16.986;2023-07-13T14:30:23;27.60;99.90
10443;DHT22;5269;51.146;16.986;2023-07-13T14:32:53;27.60;99.90
10443;DHT22;5269;51.146;16.986;2023-07-13T14:35:22;27.60;99.90
10443;DHT22;5269;51.146;16.986;2023-07-13T14:43:04;27.40;99.90
10443;DHT22;5269;51.146;16.986;2023-07-13T14:45:42;27.30;99.90
10443;DHT22;5269;51.146;16.986;2023-07-13T14:48:15;27.50;99.90
10443;DHT22;5269;51.146;16.986;2023-07-13T14:51:03;27.60;99.90
10443;DHT22;5269;51.146;16.986;2023-07-13T14:57:23;27.60;99.90
10443;DHT22;5269;51.146;16.986;2023-07-13T15:00:14;27.20;99.90
10443;DHT22;5269;51.146;16.986;2023-07-13T15:02:51;27.00;99.90
10443;DHT22;5269;51.146;16.986;2023-07-13T15:07:53;26.70;99.90
10443;DHT22;5269;51.146;16.986;2023-07-13T15:10:33;26.60;99.90
10443;DHT22;5269;51.146;16.986;2023-07-13T15:26:43;26.10;99.90
10443;DHT22;5269;51.146;16.986;2023-07-13T15:29:33;26.40;99.90
10443;DHT22;5269;51.146;16.986;2023-07-13T15:32:14;26.90;99.90
10443;DHT22;5269;51.146;16.986;2023-07-13T15:35:13;27.50;99.90
10443;DHT22;5269;51.146;16.986;2023-07-13T15:38:27;27.80;99.90
10443;DHT22;5269;51.146;16.986;2023-07-13T15:44:33;28.00;99.90
10443;DHT22;5269;51.146;16.986;2023-07-13T16:07:24;29.00;99.90
10443;DHT22;5269;51.146;16.986;2023-07-13T16:10:15;29.00;99.90
10443;DHT22;5269;51.146;16.986;2023-07-13T16:12:56;29.20;99.90
10443;DHT22;5269;51.146;16.986;2023-07-13T16:18:35;28.80;99.90
10443;DHT22;5269;51.146;16.986;2023-07-13T16:22:04;28.20;99.90
10443;DHT22;5269;51.146;16.986;2023-07-13T16:25:15;27.90;99.90
10443;DHT22;5269;51.146;16.986;2023-07-13T16:37:35;29.20;99.90
10443;DHT22;5269;51.146;16.986;2023-07-13T16:56:23;26.80;99.90
10443;DHT22;5269;51.146;16.986;2023-07-13T16:59:13;26.60;1.00
10443;DHT22;5269;51.146;16.986;2023-07-13T17:05:14;27.00;1.00
10443;DHT22;5269;51.146;16.986;2023-07-13T17:07:54;26.80;1.00
10443;DHT22;5269;51.146;16.986;2023-07-13T17:10:37;26.50;1.00
10443;DHT22;5269;51.146;16.986;2023-07-13T17:13:26;26.30;1.00
10443;DHT22;5269;51.146;16.986;2023-07-13T17:17:08;26.40;1.00
10443;DHT22;5269;51.146;16.986;2023-07-13T17:19:54;26.50;1.00
10443;DHT22;5269;51.146;16.986;2023-07-13T17:22:54;26.70;1.00
10443;DHT22;5269;51.146;16.986;2023-07-13T17:25:56;27.70;1.00
10443;DHT22;5269;51.146;16.986;2023-07-13T17:32:10;28.80;99.90
10443;DHT22;5269;51.146;16.986;2023-07-13T17:40:35;28.60;99.90
10443;DHT22;5269;51.146;16.986;2023-07-13T17:43:34;28.10;99.90
10443;DHT22;5269;51.146;16.986;2023-07-13T17:46:34;27.50;99.90
10443;DHT22;5269;51.146;16.986;2023-07-13T17:52:25;26.40;1.00
10443;DHT22;5269;51.146;16.986;2023-07-13T17:54:54;26.00;1.00
10443;DHT22;5269;51.146;16.986;2023-07-13T17:57:25;25.60;1.00
10443;DHT22;5269;51.146;16.986;2023-07-13T17:59:55;25.30;1.00
10443;DHT22;5269;51.146;16.986;2023-07-13T18:02:25;25.20;1.00
10443;DHT22;5269;51.146;16.986;2023-07-13T18:04:57;24.90;1.00
10443;DHT22;5269;51.146;16.986;2023-07-13T18:07:34;24.80;1.00
10443;DHT22;5269;51.146;16.986;2023-07-13T18:13:13;24.50;1.00
10443;DHT22;5269;51.146;16.986;2023-07-13T18:15:45;24.40;1.00
10443;DHT22;5269;51.146;16.986;2023-07-13T18:18:15;24.30;1.00
10443;DHT22;5269;51.146;16.986;2023-07-13T18:20:44;24.30;1.00
10443;DHT22;5269;51.146;16.986;2023-07-13T18:23:24;24.20;1.00
10443;DHT22;5269;51.146;16.986;2023-07-13T18:26:15;24.00;18.80
10443;DHT22;5269;51.146;16.986;2023-07-13T18:28:46;23.80;99.90
10443;DHT22;5269;51.146;16.986;2023-07-13T18:31:36;23.60;99.90
10443;DHT22;5269;51.146;16.986;2023-07-13T18:34:26;23.60;99.90
10443;DHT22;5269;51.146;16.986;2023-07-13T18:37:44;23.50;99.90
10443;DHT22;5269;51.146;16.986;2023-07-13T18:43:17;23.10;99.90
10443;DHT22;5269;51.146;16.986;2023-07-13T18:45:55;22.60;1.00
10443;DHT22;5269;51.146;16.986;2023-07-13T18:48:34;22.10;99.90
10443;DHT22;5269;51.146;16.986;2023-07-13T18:51:07;21.80;99.90
10443;DHT22;5269;51.146;16.986;2023-07-13T18:53:44;21.10;99.90
10443;DHT22;5269;51.146;16.986;2023-07-13T18:56:14;20.30;90.40
10443;DHT22;5269;51.146;16.986;2023-07-13T18:58:43;20.10;99.90
10443;DHT22;5269;51.146;16.986;2023-07-13T19:15:33;19.30;99.90
10443;DHT22;5269;51.146;16.986;2023-07-13T19:18:24;19.20;99.90
10443;DHT22;5269;51.146;16.986;2023-07-13T19:20:57;19.10;99.90
10443;DHT22;5269;51.146;16.986;2023-07-13T19:23:36;19.20;99.90
10443;DHT22;5269;51.146;16.986;2023-07-13T19:26:35;19.30;99.90
10443;DHT22;5269;51.146;16.986;2023-07-13T19:29:07;18.80;99.90
10443;DHT22;5269;51.146;16.986;2023-07-13T19:31:55;18.80;99.90
10443;DHT22;5269;51.146;16.986;2023-07-13T19:34:26;18.90;99.90
10443;DHT22;5269;51.146;16.986;2023-07-13T19:37:14;19.00;99.90
10443;DHT22;5269;51.146;16.986;2023-07-13T19:40:04;19.10;99.90
10443;DHT22;5269;51.146;16.986;2023-07-13T19:42:46;19.10;99.90
10443;DHT22;5269;51.146;16.986;2023-07-13T19:45:41;19.00;99.90
10443;DHT22;5269;51.146;16.986;2023-07-13T19:48:14;18.90;99.90
10443;DHT22;5269;51.146;16.986;2023-07-13T19:50:43;18.80;99.90
10443;DHT22;5269;51.146;16.986;2023-07-13T19:53:26;18.40;99.90
10443;DHT22;5269;51.146;16.986;2023-07-13T19:56:04;18.50;99.90
10443;DHT22;5269;51.146;16.986;2023-07-13T19:58:35;18.40;99.90
10443;DHT22;5269;51.146;16.986;2023-07-13T20:01:15;18.50;99.90
10443;DHT22;5269;51.146;16.986;2023-07-13T20:03:45;18.50;99.90
10443;DHT22;5269;51.146;16.986;2023-07-13T20:06:37;18.00;99.90
10443;DHT22;5269;51.146;16.986;2023-07-13T20:09:33;18.00;99.90
10443;DHT22;5269;51.146;16.986;2023-07-13T20:12:25;18.40;99.90
10443;DHT22;5269;51.146;16.986;2023-07-13T20:15:18;18.70;99.90
10443;DHT22;5269;51.146;16.986;2023-07-13T20:18:15;18.50;99.90
10443;DHT22;5269;51.146;16.986;2023-07-13T20:20:45;18.70;99.90
10443;DHT22;5269;51.146;16.986;2023-07-13T20:23:17;18.80;99.90
10443;DHT22;5269;51.146;16.986;2023-07-13T20:26:04;18.80;99.90
10443;DHT22;5269;51.146;16.986;2023-07-13T20:29:14;18.90;99.90
10443;DHT22;5269;51.146;16.986;2023-07-13T20:31:57;18.90;99.90
10443;DHT22;5269;51.146;16.986;2023-07-13T20:37:39;18.90;99.90
10443;DHT22;5269;51.146;16.986;2023-07-13T20:40:27;18.60;99.90
10443;DHT22;5269;51.146;16.986;2023-07-13T20:43:05;18.50;99.90
10443;DHT22;5269;51.146;16.986;2023-07-13T20:45:36;18.40;99.90
10443;DHT22;5269;51.146;16.986;2023-07-13T20:48:26;18.40;99.90
10443;DHT22;5269;51.146;16.986;2023-07-13T20:51:15;18.40;99.90
10443;DHT22;5269;51.146;16.986;2023-07-13T20:53:54;18.20;99.90
10443;DHT22;5269;51.146;16.986;2023-07-13T20:56:36;17.80;99.90
10443;DHT22;5269;51.146;16.986;2023-07-13T20:59:06;17.70;99.90
10443;DHT22;5269;51.146;16.986;2023-07-13T21:01:35;17.70;99.90
10443;DHT22;5269;51.146;16.986;2023-07-13T21:04:08;17.90;99.90
10443;DHT22;5269;51.146;16.986;2023-07-13T21:06:45;18.10;99.90
10443;DHT22;5269;51.146;16.986;2023-07-13T21:09:18;18.20;99.90
10443;DHT22;5269;51.146;16.986;2023-07-13T21:11:56;18.10;99.90
10443;DHT22;5269;51.146;16.986;2023-07-13T21:14:24;18.20;99.90
10443;DHT22;5269;51.146;16.986;2023-07-13T21:16:53;18.10;99.90
10443;DHT22;5269;51.146;16.986;2023-07-13T21:19:26;18.00;99.90
10443;DHT22;5269;51.146;16.986;2023-07-13T21:21:54;17.90;99.90
10443;DHT22;5269;51.146;16.986;2023-07-13T21:24:24;17.80;99.90
10443;DHT22;5269;51.146;16.986;2023-07-13T21:26:51;17.70;99.90
10443;DHT22;5269;51.146;16.986;2023-07-13T21:29:19;17.60;99.90
10443;DHT22;5269;51.146;16.986;2023-07-13T21:31:57;17.40;99.90
10443;DHT22;5269;51.146;16.986;2023-07-13T21:34:26;17.30;99.90
10443;DHT22;5269;51.146;16.986;2023-07-13T21:36:56;17.20;99.90
10443;DHT22;5269;51.146;16.986;2023-07-13T21:39:25;17.20;99.90
10443;DHT22;5269;51.146;16.986;2023-07-13T21:41:54;16.80;99.90
10443;DHT22;5269;51.146;16.986;2023-07-13T21:44:28;16.80;99.90
10443;DHT22;5269;51.146;16.986;2023-07-13T21:47:24;16.80;99.90
10443;DHT22;5269;51.146;16.986;2023-07-13T21:49:54;17.00;99.90
10443;DHT22;5269;51.146;16.986;2023-07-13T21:52:23;17.00;99.90
10443;DHT22;5269;51.146;16.986;2023-07-13T21:54:56;16.90;99.90
10443;DHT22;5269;51.146;16.986;2023-07-13T21:57:26;16.70;99.90
10443;DHT22;5269;51.146;16.986;2023-07-13T21:59:54;16.50;99.90
10443;DHT22;5269;51.146;16.986;2023-07-13T22:02:37;16.40;99.90
10443;DHT22;5269;51.146;16.986;2023-07-13T22:05:15;16.50;99.90
10443;DHT22;5269;51.146;16.986;2023-07-13T22:07:45;16.30;99.90
10443;DHT22;5269;51.146;16.986;2023-07-13T22:10:16;16.40;99.90
10443;DHT22;5269;51.146;16.986;2023-07-13T22:12:46;16.40;99.90
10443;DHT22;5269;51.146;16.986;2023-07-13T22:15:25;16.50;99.90
10443;DHT22;5269;51.146;16.986;2023-07-13T22:17:55;16.50;99.90
10443;DHT22;5269;51.146;16.986;2023-07-13T22:20:24;16.50;99.90
10443;DHT22;5269;51.146;16.986;2023-07-13T22:22:54;16.50;99.90
10443;DHT22;5269;51.146;16.986;2023-07-13T22:25:27;16.50;99.90
10443;DHT22;5269;51.146;16.986;2023-07-13T22:27:54;16.60;99.90
10443;DHT22;5269;51.146;16.986;2023-07-13T22:30:24;16.50;99.90
10443;DHT22;5269;51.146;16.986;2023-07-13T22:32:56;16.60;99.90
10443;DHT22;5269;51.146;16.986;2023-07-13T22:35:25;16.60;99.90
10443;DHT22;5269;51.146;16.986;2023-07-13T22:37:58;16.60;99.90
10443;DHT22;5269;51.146;16.986;2023-07-13T22:40:35;16.60;99.90
10443;DHT22;5269;51.146;16.986;2023-07-13T22:43:16;16.60;99.90
10443;DHT22;5269;51.146;16.986;2023-07-13T22:45:47;16.50;99.90
10443;DHT22;5269;51.146;16.986;2023-07-13T22:48:27;16.40;99.90
10443;DHT22;5269;51.146;16.986;2023-07-13T22:51:18;16.50;99.90
10443;DHT22;5269;51.146;16.986;2023-07-13T22:53:56;16.50;99.90
10443;DHT22;5269;51.146;16.986;2023-07-13T22:56:25;16.50;99.90
10443;DHT22;5269;51.146;16.986;2023-07-13T22:58:54;16.50;99.90
10443;DHT22;5269;51.146;16.986;2023-07-13T23:01:27;16.40;99.90
10443;DHT22;5269;51.146;16.986;2023-07-13T23:04:15;16.40;99.90
10443;DHT22;5269;51.146;16.986;2023-07-13T23:06:45;16.40;99.90
10443;DHT22;5269;51.146;16.986;2023-07-13T23:09:18;16.40;99.90
10443;DHT22;5269;51.146;16.986;2023-07-13T23:11:56;16.40;99.90
10443;DHT22;5269;51.146;16.986;2023-07-13T23:14:26;16.40;99.90
10443;DHT22;5269;51.146;16.986;2023-07-13T23:16:56;16.40;99.90
10443;DHT22;5269;51.146;16.986;2023-07-13T23:19:35;16.30;99.90
10443;DHT22;5269;51.146;16.986;2023-07-13T23:22:18;16.20;99.90
10443;DHT22;5269;51.146;16.986;2023-07-13T23:24:57;16.10;99.90
10443;DHT22;5269;51.146;16.986;2023-07-13T23:27:36;16.00;99.90
10443;DHT22;5269;51.146;16.986;2023-07-13T23:30:05;16.00;99.90
10443;DHT22;5269;51.146;16.986;2023-07-13T23:32:34;15.80;99.90
10443;DHT22;5269;51.146;16.986;2023-07-13T23:35:18;15.80;99.90
10443;DHT22;5269;51.146;16.986;2023-07-13T23:37:58;15.80;99.90
10443;DHT22;5269;51.146;16.986;2023-07-13T23:40:35;15.90;99.90
10443;DHT22;5269;51.146;16.986;2023-07-13T23:43:08;15.90;99.90
10443;DHT22;5269;51.146;16.986;2023-07-13T23:45:45;15.80;99.90
10443;DHT22;5269;51.146;16.986;2023-07-13T23:48:18;15.70;99.90
10443;DHT22;5269;51.146;16.986;2023-07-13T23:50:57;15.90;99.90
10443;DHT22;5269;51.146;16.986;2023-07-13T23:53:26;15.80;99.90
10443;DHT22;5269;51.146;16.986;2023-07-13T23:55:55;15.70;99.90
10443;DHT22;5269;51.146;16.986;2023-07-13T23:58:25;15.70;99.90
